sensor_id;sensor_type;location;lat;lon;timestamp;P1;durP1;ratioP1;P2;durP2;ratioP2
69207;SDS011;56321;47.662;8.878;2022-09-29T00:00:24;1.63;;;0.23;;
69207;SDS011;56321;47.662;8.878;2022-09-29T00:02:51;2.50;;;0.20;;
69207;SDS011;56321;47.662;8.878;2022-09-29T00:05:16;3.40;;;0.30;;
69207;SDS011;56321;47.662;8.878;2022-09-29T00:07:41;3.60;;;0.30;;
69207;SDS011;56321;47.662;8.878;2022-09-29T00:10:07;3.08;;;0.40;;
69207;SDS011;56321;47.662;8.878;2022-09-29T00:12:32;3.03;;;0.30;;
69207;SDS011;56321;47.662;8.878;2022-09-29T00:14:58;3.23;;;0.40;;
69207;SDS011;56321;47.662;8.878;2022-09-29T00:17:23;2.33;;;0.20;;
69207;SDS011;56321;47.662;8.878;2022-09-29T00:19:48;2.47;;;0.30;;
69207;SDS011;56321;47.662;8.878;2022-09-29T00:22:14;2.25;;;0.40;;
69207;SDS011;56321;47.662;8.878;2022-09-29T00:24:39;1.90;;;0.20;;
69207;SDS011;56321;47.662;8.878;2022-09-29T00:27:05;2.10;;;0.30;;
69207;SDS011;56321;47.662;8.878;2022-09-29T00:29:30;2.20;;;0.30;;
69207;SDS011;56321;47.662;8.878;2022-09-29T00:31:55;4.47;;;0.53;;
69207;SDS011;56321;47.662;8.878;2022-09-29T00:34:21;1.90;;;0.30;;
69207;SDS011;56321;47.662;8.878;2022-09-29T00:36:46;2.13;;;0.20;;
69207;SDS011;56321;47.662;8.878;2022-09-29T00:39:11;2.43;;;0.27;;
69207;SDS011;56321;47.662;8.878;2022-09-29T00:41:37;2.90;;;0.30;;
69207;SDS011;56321;47.662;8.878;2022-09-29T00:44:05;2.00;;;0.22;;
69207;SDS011;56321;47.662;8.878;2022-09-29T00:57:30;1.50;;;0.20;;
69207;SDS011;56321;47.662;8.878;2022-09-29T01:00:03;1.83;;;0.22;;
69207;SDS011;56321;47.662;8.878;2022-09-29T01:02:32;2.25;;;0.30;;
69207;SDS011;56321;47.662;8.878;2022-09-29T01:05:00;1.73;;;0.20;;
69207;SDS011;56321;47.662;8.878;2022-09-29T01:07:29;3.90;;;0.20;;
69207;SDS011;56321;47.662;8.878;2022-09-29T01:09:54;1.30;;;0.20;;
69207;SDS011;56321;47.662;8.878;2022-09-29T01:12:21;1.63;;;0.20;;
69207;SDS011;56321;47.662;8.878;2022-09-29T01:14:47;2.00;;;0.20;;
69207;SDS011;56321;47.662;8.878;2022-09-29T01:17:13;1.00;;;0.20;;
69207;SDS011;56321;47.662;8.878;2022-09-29T01:25:10;1.95;;;0.20;;
69207;SDS011;56321;47.662;8.878;2022-09-29T01:30:52;1.17;;;0.20;;
69207;SDS011;56321;47.662;8.878;2022-09-29T01:33:41;1.73;;;0.10;;
69207;SDS011;56321;47.662;8.878;2022-09-29T01:36:34;0.98;;;0.10;;
69207;SDS011;56321;47.662;8.878;2022-09-29T01:41:29;1.20;;;0.20;;
69207;SDS011;56321;47.662;8.878;2022-09-29T01:46:51;1.52;;;0.20;;
69207;SDS011;56321;47.662;8.878;2022-09-29T01:49:22;1.67;;;0.20;;
69207;SDS011;56321;47.662;8.878;2022-09-29T01:51:55;3.33;;;0.30;;
69207;SDS011;56321;47.662;8.878;2022-09-29T01:54:30;1.30;;;0.20;;
69207;SDS011;56321;47.662;8.878;2022-09-29T01:57:16;1.47;;;0.20;;
69207;SDS011;56321;47.662;8.878;2022-09-29T02:00:04;1.40;;;0.20;;
69207;SDS011;56321;47.662;8.878;2022-09-29T02:02:44;1.95;;;0.20;;
69207;SDS011;56321;47.662;8.878;2022-09-29T02:08:13;3.20;;;0.30;;
69207;SDS011;56321;47.662;8.878;2022-09-29T02:13:28;2.13;;;0.10;;
69207;SDS011;56321;47.662;8.878;2022-09-29T02:16:08;1.35;;;0.20;;
69207;SDS011;56321;47.662;8.878;2022-09-29T02:18:38;2.13;;;0.20;;
69207;SDS011;56321;47.662;8.878;2022-09-29T02:21:08;1.45;;;0.20;;
69207;SDS011;56321;47.662;8.878;2022-09-29T02:23:34;1.63;;;0.20;;
69207;SDS011;56321;47.662;8.878;2022-09-29T02:26:00;1.35;;;0.20;;
69207;SDS011;56321;47.662;8.878;2022-09-29T02:28:26;2.60;;;0.20;;
69207;SDS011;56321;47.662;8.878;2022-09-29T02:30:52;1.33;;;0.20;;
69207;SDS011;56321;47.662;8.878;2022-09-29T02:33:18;2.27;;;0.20;;
69207;SDS011;56321;47.662;8.878;2022-09-29T02:38:42;1.83;;;0.20;;
69207;SDS011;56321;47.662;8.878;2022-09-29T02:44:00;1.80;;;0.30;;
69207;SDS011;56321;47.662;8.878;2022-09-29T02:54:54;1.37;;;0.20;;
69207;SDS011;56321;47.662;8.878;2022-09-29T03:00:33;1.55;;;0.20;;
69207;SDS011;56321;47.662;8.878;2022-09-29T03:02:59;2.40;;;0.30;;
69207;SDS011;56321;47.662;8.878;2022-09-29T03:05:25;1.50;;;0.20;;
69207;SDS011;56321;47.662;8.878;2022-09-29T03:07:50;1.63;;;0.20;;
69207;SDS011;56321;47.662;8.878;2022-09-29T03:10:16;2.07;;;0.20;;
69207;SDS011;56321;47.662;8.878;2022-09-29T03:12:41;2.22;;;0.20;;
69207;SDS011;56321;47.662;8.878;2022-09-29T03:15:07;2.33;;;0.30;;
69207;SDS011;56321;47.662;8.878;2022-09-29T03:17:35;1.48;;;0.20;;
69207;SDS011;56321;47.662;8.878;2022-09-29T03:20:00;2.27;;;0.30;;
69207;SDS011;56321;47.662;8.878;2022-09-29T03:22:26;1.67;;;0.20;;
69207;SDS011;56321;47.662;8.878;2022-09-29T03:24:51;2.13;;;0.20;;
69207;SDS011;56321;47.662;8.878;2022-09-29T03:27:17;1.87;;;0.20;;
69207;SDS011;56321;47.662;8.878;2022-09-29T03:29:42;1.53;;;0.20;;
69207;SDS011;56321;47.662;8.878;2022-09-29T03:32:07;2.63;;;0.28;;
69207;SDS011;56321;47.662;8.878;2022-09-29T03:34:33;1.33;;;0.20;;
69207;SDS011;56321;47.662;8.878;2022-09-29T03:36:59;1.80;;;0.30;;
69207;SDS011;56321;47.662;8.878;2022-09-29T03:39:25;1.10;;;0.20;;
69207;SDS011;56321;47.662;8.878;2022-09-29T03:41:50;2.00;;;0.20;;
69207;SDS011;56321;47.662;8.878;2022-09-29T03:44:16;2.13;;;0.20;;
69207;SDS011;56321;47.662;8.878;2022-09-29T03:46:41;2.13;;;0.30;;
69207;SDS011;56321;47.662;8.878;2022-09-29T03:49:10;2.63;;;0.30;;
69207;SDS011;56321;47.662;8.878;2022-09-29T03:51:37;2.63;;;0.20;;
69207;SDS011;56321;47.662;8.878;2022-09-29T03:54:03;2.47;;;0.30;;
69207;SDS011;56321;47.662;8.878;2022-09-29T03:56:28;2.92;;;0.20;;
69207;SDS011;56321;47.662;8.878;2022-09-29T03:58:53;1.87;;;0.20;;
69207;SDS011;56321;47.662;8.878;2022-09-29T04:01:19;1.57;;;0.20;;
69207;SDS011;56321;47.662;8.878;2022-09-29T04:03:44;1.70;;;0.30;;
69207;SDS011;56321;47.662;8.878;2022-09-29T04:06:10;1.23;;;0.20;;
69207;SDS011;56321;47.662;8.878;2022-09-29T04:08:35;2.33;;;0.20;;
69207;SDS011;56321;47.662;8.878;2022-09-29T04:11:01;1.70;;;0.13;;
69207;SDS011;56321;47.662;8.878;2022-09-29T04:13:26;2.57;;;0.20;;
69207;SDS011;56321;47.662;8.878;2022-09-29T04:15:52;1.13;;;0.20;;
69207;SDS011;56321;47.662;8.878;2022-09-29T04:18:24;2.28;;;0.20;;
69207;SDS011;56321;47.662;8.878;2022-09-29T04:20:49;2.40;;;0.20;;
69207;SDS011;56321;47.662;8.878;2022-09-29T04:23:14;1.83;;;0.30;;
69207;SDS011;56321;47.662;8.878;2022-09-29T04:25:40;1.87;;;0.20;;
69207;SDS011;56321;47.662;8.878;2022-09-29T04:28:05;3.60;;;0.20;;
69207;SDS011;56321;47.662;8.878;2022-09-29T04:30:30;2.13;;;0.20;;
69207;SDS011;56321;47.662;8.878;2022-09-29T04:32:56;1.53;;;0.20;;
69207;SDS011;56321;47.662;8.878;2022-09-29T04:35:21;2.67;;;0.30;;
69207;SDS011;56321;47.662;8.878;2022-09-29T04:37:47;2.33;;;0.40;;
69207;SDS011;56321;47.662;8.878;2022-09-29T04:40:12;2.93;;;0.30;;
69207;SDS011;56321;47.662;8.878;2022-09-29T04:42:38;1.77;;;0.20;;
69207;SDS011;56321;47.662;8.878;2022-09-29T04:45:04;1.60;;;0.30;;
69207;SDS011;56321;47.662;8.878;2022-09-29T04:47:30;2.30;;;0.30;;
69207;SDS011;56321;47.662;8.878;2022-09-29T04:49:55;1.87;;;0.27;;
69207;SDS011;56321;47.662;8.878;2022-09-29T04:52:20;3.13;;;0.30;;
69207;SDS011;56321;47.662;8.878;2022-09-29T04:54:46;2.23;;;0.30;;
69207;SDS011;56321;47.662;8.878;2022-09-29T04:57:11;2.65;;;0.30;;
69207;SDS011;56321;47.662;8.878;2022-09-29T04:59:36;2.43;;;0.30;;
69207;SDS011;56321;47.662;8.878;2022-09-29T05:02:02;2.80;;;0.40;;
69207;SDS011;56321;47.662;8.878;2022-09-29T05:04:27;2.57;;;0.30;;
69207;SDS011;56321;47.662;8.878;2022-09-29T05:06:52;2.60;;;0.30;;
69207;SDS011;56321;47.662;8.878;2022-09-29T05:09:18;2.60;;;0.30;;
69207;SDS011;56321;47.662;8.878;2022-09-29T05:11:43;3.13;;;0.40;;
69207;SDS011;56321;47.662;8.878;2022-09-29T05:14:09;2.97;;;0.38;;
69207;SDS011;56321;47.662;8.878;2022-09-29T05:16:36;2.80;;;0.40;;
69207;SDS011;56321;47.662;8.878;2022-09-29T05:19:02;2.58;;;0.40;;
69207;SDS011;56321;47.662;8.878;2022-09-29T05:21:27;2.80;;;0.40;;
69207;SDS011;56321;47.662;8.878;2022-09-29T05:23:53;4.53;;;0.60;;
69207;SDS011;56321;47.662;8.878;2022-09-29T05:26:18;4.13;;;0.90;;
69207;SDS011;56321;47.662;8.878;2022-09-29T05:28:45;3.93;;;0.80;;
69207;SDS011;56321;47.662;8.878;2022-09-29T05:31:11;4.05;;;0.85;;
69207;SDS011;56321;47.662;8.878;2022-09-29T05:33:38;3.97;;;0.70;;
69207;SDS011;56321;47.662;8.878;2022-09-29T05:36:04;5.38;;;1.02;;
69207;SDS011;56321;47.662;8.878;2022-09-29T05:38:36;4.90;;;1.10;;
69207;SDS011;56321;47.662;8.878;2022-09-29T05:41:03;5.20;;;1.20;;
69207;SDS011;56321;47.662;8.878;2022-09-29T05:43:29;4.80;;;1.30;;
69207;SDS011;56321;47.662;8.878;2022-09-29T05:45:59;8.03;;;3.60;;
69207;SDS011;56321;47.662;8.878;2022-09-29T05:48:26;7.57;;;3.40;;
69207;SDS011;56321;47.662;8.878;2022-09-29T05:50:53;7.35;;;3.17;;
69207;SDS011;56321;47.662;8.878;2022-09-29T05:53:18;7.10;;;3.07;;
69207;SDS011;56321;47.662;8.878;2022-09-29T05:55:44;6.03;;;1.90;;
69207;SDS011;56321;47.662;8.878;2022-09-29T05:58:09;5.27;;;1.47;;
69207;SDS011;56321;47.662;8.878;2022-09-29T06:00:34;6.33;;;1.00;;
69207;SDS011;56321;47.662;8.878;2022-09-29T06:03:00;5.10;;;1.40;;
69207;SDS011;56321;47.662;8.878;2022-09-29T06:05:26;4.50;;;1.20;;
69207;SDS011;56321;47.662;8.878;2022-09-29T06:07:52;4.72;;;0.90;;
69207;SDS011;56321;47.662;8.878;2022-09-29T06:10:18;4.00;;;0.87;;
69207;SDS011;56321;47.662;8.878;2022-09-29T06:12:44;3.92;;;0.70;;
69207;SDS011;56321;47.662;8.878;2022-09-29T06:15:10;4.60;;;0.90;;
69207;SDS011;56321;47.662;8.878;2022-09-29T06:17:36;4.88;;;0.80;;
69207;SDS011;56321;47.662;8.878;2022-09-29T06:20:03;4.75;;;1.10;;
69207;SDS011;56321;47.662;8.878;2022-09-29T06:22:29;5.57;;;1.25;;
69207;SDS011;56321;47.662;8.878;2022-09-29T06:24:55;4.63;;;1.40;;
69207;SDS011;56321;47.662;8.878;2022-09-29T06:27:20;5.03;;;1.20;;
69207;SDS011;56321;47.662;8.878;2022-09-29T06:29:45;3.80;;;0.80;;
69207;SDS011;56321;47.662;8.878;2022-09-29T06:32:11;4.03;;;0.80;;
69207;SDS011;56321;47.662;8.878;2022-09-29T06:34:36;3.33;;;0.60;;
69207;SDS011;56321;47.662;8.878;2022-09-29T06:37:21;3.17;;;0.55;;
69207;SDS011;56321;47.662;8.878;2022-09-29T06:39:59;2.72;;;0.50;;
69207;SDS011;56321;47.662;8.878;2022-09-29T06:42:28;3.67;;;0.60;;
69207;SDS011;56321;47.662;8.878;2022-09-29T06:44:54;3.30;;;0.65;;
69207;SDS011;56321;47.662;8.878;2022-09-29T06:47:19;2.77;;;0.40;;
69207;SDS011;56321;47.662;8.878;2022-09-29T06:49:45;3.37;;;0.60;;
69207;SDS011;56321;47.662;8.878;2022-09-29T06:52:10;3.50;;;0.67;;
69207;SDS011;56321;47.662;8.878;2022-09-29T06:54:35;4.37;;;0.90;;
69207;SDS011;56321;47.662;8.878;2022-09-29T06:57:01;5.63;;;1.30;;
69207;SDS011;56321;47.662;8.878;2022-09-29T06:59:26;4.83;;;1.27;;
69207;SDS011;56321;47.662;8.878;2022-09-29T07:01:51;4.47;;;0.98;;
69207;SDS011;56321;47.662;8.878;2022-09-29T07:04:17;4.63;;;1.30;;
69207;SDS011;56321;47.662;8.878;2022-09-29T07:06:43;5.75;;;1.30;;
69207;SDS011;56321;47.662;8.878;2022-09-29T07:09:09;5.07;;;1.30;;
69207;SDS011;56321;47.662;8.878;2022-09-29T07:11:40;5.05;;;1.17;;
69207;SDS011;56321;47.662;8.878;2022-09-29T07:14:06;4.90;;;1.30;;
69207;SDS011;56321;47.662;8.878;2022-09-29T07:16:31;5.07;;;1.47;;
69207;SDS011;56321;47.662;8.878;2022-09-29T07:18:57;5.30;;;1.10;;
69207;SDS011;56321;47.662;8.878;2022-09-29T07:21:22;5.27;;;1.60;;
69207;SDS011;56321;47.662;8.878;2022-09-29T07:23:47;4.40;;;1.15;;
69207;SDS011;56321;47.662;8.878;2022-09-29T07:26:14;4.30;;;0.90;;
69207;SDS011;56321;47.662;8.878;2022-09-29T07:28:43;5.85;;;1.60;;
69207;SDS011;56321;47.662;8.878;2022-09-29T07:31:09;5.25;;;1.33;;
69207;SDS011;56321;47.662;8.878;2022-09-29T07:33:37;4.93;;;1.60;;
69207;SDS011;56321;47.662;8.878;2022-09-29T07:36:02;5.30;;;2.00;;
69207;SDS011;56321;47.662;8.878;2022-09-29T07:38:28;5.00;;;1.40;;
69207;SDS011;56321;47.662;8.878;2022-09-29T07:41:05;4.50;;;1.10;;
69207;SDS011;56321;47.662;8.878;2022-09-29T07:43:33;5.13;;;1.20;;
69207;SDS011;56321;47.662;8.878;2022-09-29T07:45:58;5.05;;;1.40;;
69207;SDS011;56321;47.662;8.878;2022-09-29T07:48:24;5.68;;;1.80;;
69207;SDS011;56321;47.662;8.878;2022-09-29T07:50:50;5.27;;;1.80;;
69207;SDS011;56321;47.662;8.878;2022-09-29T07:53:16;6.15;;;2.05;;
69207;SDS011;56321;47.662;8.878;2022-09-29T07:55:42;5.65;;;1.80;;
69207;SDS011;56321;47.662;8.878;2022-09-29T07:58:07;6.13;;;1.90;;
69207;SDS011;56321;47.662;8.878;2022-09-29T08:00:33;6.43;;;1.80;;
69207;SDS011;56321;47.662;8.878;2022-09-29T08:03:02;5.83;;;1.67;;
69207;SDS011;56321;47.662;8.878;2022-09-29T08:05:30;6.03;;;1.70;;
69207;SDS011;56321;47.662;8.878;2022-09-29T08:07:57;5.63;;;1.50;;
69207;SDS011;56321;47.662;8.878;2022-09-29T08:10:27;6.20;;;1.70;;
69207;SDS011;56321;47.662;8.878;2022-09-29T08:12:53;5.40;;;1.30;;
69207;SDS011;56321;47.662;8.878;2022-09-29T08:15:19;6.20;;;1.25;;
69207;SDS011;56321;47.662;8.878;2022-09-29T08:17:45;5.90;;;1.30;;
69207;SDS011;56321;47.662;8.878;2022-09-29T08:20:10;5.65;;;1.40;;
69207;SDS011;56321;47.662;8.878;2022-09-29T08:22:36;4.47;;;1.20;;
69207;SDS011;56321;47.662;8.878;2022-09-29T08:25:01;4.80;;;1.10;;
69207;SDS011;56321;47.662;8.878;2022-09-29T08:27:26;4.17;;;0.90;;
69207;SDS011;56321;47.662;8.878;2022-09-29T08:29:53;5.00;;;1.40;;
69207;SDS011;56321;47.662;8.878;2022-09-29T08:32:18;4.57;;;1.30;;
69207;SDS011;56321;47.662;8.878;2022-09-29T08:34:44;5.72;;;1.05;;
69207;SDS011;56321;47.662;8.878;2022-09-29T08:37:09;4.80;;;1.10;;
69207;SDS011;56321;47.662;8.878;2022-09-29T08:39:35;4.25;;;0.90;;
69207;SDS011;56321;47.662;8.878;2022-09-29T08:42:07;5.27;;;1.00;;
69207;SDS011;56321;47.662;8.878;2022-09-29T08:44:51;4.30;;;0.90;;
69207;SDS011;56321;47.662;8.878;2022-09-29T08:47:36;4.55;;;0.88;;
69207;SDS011;56321;47.662;8.878;2022-09-29T08:52:56;4.13;;;0.80;;
69207;SDS011;56321;47.662;8.878;2022-09-29T08:58:00;4.15;;;0.60;;
69207;SDS011;56321;47.662;8.878;2022-09-29T09:00:32;4.28;;;0.70;;
69207;SDS011;56321;47.662;8.878;2022-09-29T09:03:12;11.02;;;4.28;;
69207;SDS011;56321;47.662;8.878;2022-09-29T09:05:59;4.53;;;1.00;;
69207;SDS011;56321;47.662;8.878;2022-09-29T09:16:32;3.28;;;0.60;;
69207;SDS011;56321;47.662;8.878;2022-09-29T09:22:03;3.67;;;0.60;;
69207;SDS011;56321;47.662;8.878;2022-09-29T09:27:25;3.35;;;0.60;;
69207;SDS011;56321;47.662;8.878;2022-09-29T09:30:04;3.00;;;0.45;;
69207;SDS011;56321;47.662;8.878;2022-09-29T09:32:38;3.08;;;0.65;;
69207;SDS011;56321;47.662;8.878;2022-09-29T09:37:48;3.83;;;0.70;;
69207;SDS011;56321;47.662;8.878;2022-09-29T09:40:28;3.97;;;0.70;;
69207;SDS011;56321;47.662;8.878;2022-09-29T09:43:04;3.50;;;0.60;;
69207;SDS011;56321;47.662;8.878;2022-09-29T09:45:35;3.85;;;0.70;;
69207;SDS011;56321;47.662;8.878;2022-09-29T09:48:13;3.33;;;0.70;;
69207;SDS011;56321;47.662;8.878;2022-09-29T09:50:43;3.45;;;0.70;;
69207;SDS011;56321;47.662;8.878;2022-09-29T09:53:18;4.78;;;0.90;;
69207;SDS011;56321;47.662;8.878;2022-09-29T09:55:52;3.55;;;0.70;;
69207;SDS011;56321;47.662;8.878;2022-09-29T10:01:47;4.70;;;0.90;;
69207;SDS011;56321;47.662;8.878;2022-09-29T10:04:12;3.70;;;0.80;;
69207;SDS011;56321;47.662;8.878;2022-09-29T10:06:38;4.33;;;0.90;;
69207;SDS011;56321;47.662;8.878;2022-09-29T10:09:04;4.00;;;0.80;;
69207;SDS011;56321;47.662;8.878;2022-09-29T10:11:30;3.37;;;0.77;;
69207;SDS011;56321;47.662;8.878;2022-09-29T10:13:59;2.90;;;0.55;;
69207;SDS011;56321;47.662;8.878;2022-09-29T10:16:32;3.25;;;0.70;;
69207;SDS011;56321;47.662;8.878;2022-09-29T10:19:05;3.37;;;0.60;;
69207;SDS011;56321;47.662;8.878;2022-09-29T10:23:56;2.90;;;0.50;;
69207;SDS011;56321;47.662;8.878;2022-09-29T10:28:50;2.97;;;0.60;;
69207;SDS011;56321;47.662;8.878;2022-09-29T10:33:56;2.95;;;0.45;;
69207;SDS011;56321;47.662;8.878;2022-09-29T10:36:25;3.25;;;0.63;;
69207;SDS011;56321;47.662;8.878;2022-09-29T10:38:53;3.38;;;0.60;;
69207;SDS011;56321;47.662;8.878;2022-09-29T10:41:20;2.17;;;0.40;;
69207;SDS011;56321;47.662;8.878;2022-09-29T10:43:46;2.08;;;0.40;;
69207;SDS011;56321;47.662;8.878;2022-09-29T10:49:16;1.50;;;0.30;;
69207;SDS011;56321;47.662;8.878;2022-09-29T10:52:02;2.22;;;0.40;;
69207;SDS011;56321;47.662;8.878;2022-09-29T10:54:31;2.38;;;0.40;;
69207;SDS011;56321;47.662;8.878;2022-09-29T10:56:59;1.98;;;0.40;;
69207;SDS011;56321;47.662;8.878;2022-09-29T10:59:35;2.15;;;0.38;;
69207;SDS011;56321;47.662;8.878;2022-09-29T11:02:10;1.93;;;0.40;;
69207;SDS011;56321;47.662;8.878;2022-09-29T11:04:50;2.35;;;0.50;;
69207;SDS011;56321;47.662;8.878;2022-09-29T11:07:18;2.13;;;0.40;;
69207;SDS011;56321;47.662;8.878;2022-09-29T11:09:43;2.57;;;0.50;;
69207;SDS011;56321;47.662;8.878;2022-09-29T11:14:46;2.88;;;0.50;;
69207;SDS011;56321;47.662;8.878;2022-09-29T11:19:50;2.07;;;0.40;;
69207;SDS011;56321;47.662;8.878;2022-09-29T11:27:52;2.85;;;0.50;;
69207;SDS011;56321;47.662;8.878;2022-09-29T11:54:58;3.15;;;0.70;;
69207;SDS011;56321;47.662;8.878;2022-09-29T12:10:57;3.65;;;0.70;;
69207;SDS011;56321;47.662;8.878;2022-09-29T12:16:10;2.78;;;0.50;;
69207;SDS011;56321;47.662;8.878;2022-09-29T12:21:54;4.30;;;1.00;;
69207;SDS011;56321;47.662;8.878;2022-09-29T12:24:16;3.17;;;0.60;;
69207;SDS011;56321;47.662;8.878;2022-09-29T12:26:45;3.17;;;0.50;;
69207;SDS011;56321;47.662;8.878;2022-09-29T12:31:46;2.97;;;0.50;;
69207;SDS011;56321;47.662;8.878;2022-09-29T12:34:19;2.55;;;0.40;;
69207;SDS011;56321;47.662;8.878;2022-09-29T12:50:41;2.08;;;0.30;;
69207;SDS011;56321;47.662;8.878;2022-09-29T12:53:15;2.90;;;0.40;;
69207;SDS011;56321;47.662;8.878;2022-09-29T12:56:03;2.10;;;0.30;;
69207;SDS011;56321;47.662;8.878;2022-09-29T12:58:42;1.90;;;0.30;;
69207;SDS011;56321;47.662;8.878;2022-09-29T13:06:27;1.80;;;0.30;;
69207;SDS011;56321;47.662;8.878;2022-09-29T13:11:49;2.33;;;0.30;;
69207;SDS011;56321;47.662;8.878;2022-09-29T13:17:16;3.45;;;0.30;;
69207;SDS011;56321;47.662;8.878;2022-09-29T13:22:30;2.35;;;0.30;;
69207;SDS011;56321;47.662;8.878;2022-09-29T13:27:37;2.95;;;0.50;;
69207;SDS011;56321;47.662;8.878;2022-09-29T13:30:15;2.42;;;0.50;;
69207;SDS011;56321;47.662;8.878;2022-09-29T13:32:47;1.30;;;0.30;;
69207;SDS011;56321;47.662;8.878;2022-09-29T13:35:26;2.03;;;0.30;;
69207;SDS011;56321;47.662;8.878;2022-09-29T13:37:56;2.55;;;0.30;;
69207;SDS011;56321;47.662;8.878;2022-09-29T13:40:26;2.42;;;0.30;;
69207;SDS011;56321;47.662;8.878;2022-09-29T13:42:53;2.10;;;0.43;;
69207;SDS011;56321;47.662;8.878;2022-09-29T13:58:34;5.05;;;1.30;;
69207;SDS011;56321;47.662;8.878;2022-09-29T14:01:06;2.83;;;0.40;;
69207;SDS011;56321;47.662;8.878;2022-09-29T14:08:45;1.60;;;0.20;;
69207;SDS011;56321;47.662;8.878;2022-09-29T14:13:46;1.40;;;0.20;;
69207;SDS011;56321;47.662;8.878;2022-09-29T14:29:46;2.17;;;0.20;;
69207;SDS011;56321;47.662;8.878;2022-09-29T14:32:19;2.22;;;0.30;;
69207;SDS011;56321;47.662;8.878;2022-09-29T14:34:50;1.95;;;0.20;;
69207;SDS011;56321;47.662;8.878;2022-09-29T14:37:18;2.15;;;0.25;;
69207;SDS011;56321;47.662;8.878;2022-09-29T14:39:47;1.95;;;0.30;;
69207;SDS011;56321;47.662;8.878;2022-09-29T14:42:32;1.70;;;0.20;;
69207;SDS011;56321;47.662;8.878;2022-09-29T14:44:58;1.90;;;0.20;;
69207;SDS011;56321;47.662;8.878;2022-09-29T14:50:50;1.52;;;0.20;;
69207;SDS011;56321;47.662;8.878;2022-09-29T14:53:54;2.33;;;0.38;;
69207;SDS011;56321;47.662;8.878;2022-09-29T15:04:29;1.58;;;0.20;;
69207;SDS011;56321;47.662;8.878;2022-09-29T15:07:02;1.40;;;0.20;;
69207;SDS011;56321;47.662;8.878;2022-09-29T15:09:33;1.42;;;0.30;;
69207;SDS011;56321;47.662;8.878;2022-09-29T15:12:00;2.70;;;0.50;;
69207;SDS011;56321;47.662;8.878;2022-09-29T15:14:29;1.88;;;0.30;;
69207;SDS011;56321;47.662;8.878;2022-09-29T15:27:20;1.50;;;0.30;;
69207;SDS011;56321;47.662;8.878;2022-09-29T15:29:46;1.75;;;0.30;;
69207;SDS011;56321;47.662;8.878;2022-09-29T15:32:23;1.77;;;0.30;;
69207;SDS011;56321;47.662;8.878;2022-09-29T15:34:52;2.78;;;0.40;;
69207;SDS011;56321;47.662;8.878;2022-09-29T15:37:24;3.63;;;0.77;;
69207;SDS011;56321;47.662;8.878;2022-09-29T15:39:52;3.90;;;0.98;;
69207;SDS011;56321;47.662;8.878;2022-09-29T15:42:21;4.07;;;0.75;;
69207;SDS011;56321;47.662;8.878;2022-09-29T15:44:52;2.70;;;0.50;;
69207;SDS011;56321;47.662;8.878;2022-09-29T15:47:27;2.53;;;0.55;;
69207;SDS011;56321;47.662;8.878;2022-09-29T15:49:58;1.95;;;0.40;;
69207;SDS011;56321;47.662;8.878;2022-09-29T15:52:29;3.20;;;0.50;;
69207;SDS011;56321;47.662;8.878;2022-09-29T15:54:55;3.57;;;0.70;;
69207;SDS011;56321;47.662;8.878;2022-09-29T15:57:39;3.87;;;0.80;;
69207;SDS011;56321;47.662;8.878;2022-09-29T16:05:44;3.17;;;0.50;;
69207;SDS011;56321;47.662;8.878;2022-09-29T16:08:21;2.38;;;0.47;;
69207;SDS011;56321;47.662;8.878;2022-09-29T16:10:54;3.20;;;0.50;;
69207;SDS011;56321;47.662;8.878;2022-09-29T16:13:23;3.47;;;0.50;;
69207;SDS011;56321;47.662;8.878;2022-09-29T16:15:51;3.03;;;0.55;;
69207;SDS011;56321;47.662;8.878;2022-09-29T16:18:22;4.75;;;0.60;;
69207;SDS011;56321;47.662;8.878;2022-09-29T16:20:50;2.60;;;0.30;;
69207;SDS011;56321;47.662;8.878;2022-09-29T16:31:24;2.90;;;0.57;;
69207;SDS011;56321;47.662;8.878;2022-09-29T16:33:52;3.55;;;0.70;;
69207;SDS011;56321;47.662;8.878;2022-09-29T16:36:19;4.10;;;0.80;;
69207;SDS011;56321;47.662;8.878;2022-09-29T16:38:48;4.55;;;0.80;;
69207;SDS011;56321;47.662;8.878;2022-09-29T16:44:03;3.28;;;0.60;;
69207;SDS011;56321;47.662;8.878;2022-09-29T16:51:51;3.42;;;0.80;;
69207;SDS011;56321;47.662;8.878;2022-09-29T16:54:27;4.45;;;1.00;;
69207;SDS011;56321;47.662;8.878;2022-09-29T16:57:10;4.80;;;0.95;;
69207;SDS011;56321;47.662;8.878;2022-09-29T16:59:42;4.82;;;1.25;;
69207;SDS011;56321;47.662;8.878;2022-09-29T17:02:11;4.20;;;1.10;;
69207;SDS011;56321;47.662;8.878;2022-09-29T17:04:37;4.05;;;1.00;;
69207;SDS011;56321;47.662;8.878;2022-09-29T17:07:02;3.70;;;0.90;;
69207;SDS011;56321;47.662;8.878;2022-09-29T17:09:28;5.55;;;1.80;;
69207;SDS011;56321;47.662;8.878;2022-09-29T17:11:54;6.88;;;2.10;;
69207;SDS011;56321;47.662;8.878;2022-09-29T17:14:20;5.53;;;2.50;;
69207;SDS011;56321;47.662;8.878;2022-09-29T17:16:46;5.32;;;1.90;;
69207;SDS011;56321;47.662;8.878;2022-09-29T17:19:13;5.23;;;1.70;;
69207;SDS011;56321;47.662;8.878;2022-09-29T17:21:39;21.27;;;10.48;;
69207;SDS011;56321;47.662;8.878;2022-09-29T17:24:04;12.33;;;6.47;;
69207;SDS011;56321;47.662;8.878;2022-09-29T17:26:33;11.20;;;5.83;;
69207;SDS011;56321;47.662;8.878;2022-09-29T17:29:18;7.28;;;3.30;;
69207;SDS011;56321;47.662;8.878;2022-09-29T17:31:43;6.50;;;2.13;;
69207;SDS011;56321;47.662;8.878;2022-09-29T17:34:08;4.70;;;1.27;;
69207;SDS011;56321;47.662;8.878;2022-09-29T17:36:34;4.63;;;1.30;;
69207;SDS011;56321;47.662;8.878;2022-09-29T17:39:01;4.83;;;1.30;;
69207;SDS011;56321;47.662;8.878;2022-09-29T17:41:26;4.90;;;1.50;;
69207;SDS011;56321;47.662;8.878;2022-09-29T17:43:52;5.20;;;1.53;;
69207;SDS011;56321;47.662;8.878;2022-09-29T17:46:17;4.80;;;1.20;;
69207;SDS011;56321;47.662;8.878;2022-09-29T17:48:42;5.35;;;1.50;;
69207;SDS011;56321;47.662;8.878;2022-09-29T17:51:11;8.10;;;2.77;;
69207;SDS011;56321;47.662;8.878;2022-09-29T17:53:40;11.73;;;4.97;;
69207;SDS011;56321;47.662;8.878;2022-09-29T17:56:08;10.23;;;4.03;;
69207;SDS011;56321;47.662;8.878;2022-09-29T17:58:45;8.13;;;2.92;;
69207;SDS011;56321;47.662;8.878;2022-09-29T18:01:10;6.50;;;2.10;;
69207;SDS011;56321;47.662;8.878;2022-09-29T18:03:36;6.63;;;2.20;;
69207;SDS011;56321;47.662;8.878;2022-09-29T18:06:01;4.97;;;1.67;;
69207;SDS011;56321;47.662;8.878;2022-09-29T18:08:26;5.50;;;2.00;;
69207;SDS011;56321;47.662;8.878;2022-09-29T18:10:57;7.33;;;3.07;;
69207;SDS011;56321;47.662;8.878;2022-09-29T18:13:24;6.90;;;2.35;;
69207;SDS011;56321;47.662;8.878;2022-09-29T18:15:52;4.88;;;1.80;;
69207;SDS011;56321;47.662;8.878;2022-09-29T18:18:18;4.90;;;1.38;;
69207;SDS011;56321;47.662;8.878;2022-09-29T18:20:45;4.80;;;1.40;;
69207;SDS011;56321;47.662;8.878;2022-09-29T18:23:14;4.60;;;1.40;;
69207;SDS011;56321;47.662;8.878;2022-09-29T18:25:40;4.72;;;1.35;;
69207;SDS011;56321;47.662;8.878;2022-09-29T18:28:10;5.20;;;2.00;;
69207;SDS011;56321;47.662;8.878;2022-09-29T18:30:39;5.60;;;2.20;;
69207;SDS011;56321;47.662;8.878;2022-09-29T18:33:07;5.00;;;1.50;;
69207;SDS011;56321;47.662;8.878;2022-09-29T18:35:36;5.18;;;1.30;;
69207;SDS011;56321;47.662;8.878;2022-09-29T18:38:02;4.55;;;1.27;;
69207;SDS011;56321;47.662;8.878;2022-09-29T18:40:29;5.03;;;1.30;;
69207;SDS011;56321;47.662;8.878;2022-09-29T18:42:55;4.90;;;1.30;;
69207;SDS011;56321;47.662;8.878;2022-09-29T18:45:23;4.93;;;1.52;;
69207;SDS011;56321;47.662;8.878;2022-09-29T18:47:56;4.85;;;1.60;;
69207;SDS011;56321;47.662;8.878;2022-09-29T18:50:34;5.65;;;1.80;;
69207;SDS011;56321;47.662;8.878;2022-09-29T18:53:07;5.85;;;2.15;;
69207;SDS011;56321;47.662;8.878;2022-09-29T18:55:33;6.17;;;2.30;;
69207;SDS011;56321;47.662;8.878;2022-09-29T18:57:58;5.53;;;2.00;;
69207;SDS011;56321;47.662;8.878;2022-09-29T19:00:26;5.97;;;2.30;;
69207;SDS011;56321;47.662;8.878;2022-09-29T19:02:55;7.45;;;3.60;;
69207;SDS011;56321;47.662;8.878;2022-09-29T19:05:24;6.70;;;3.20;;